Marion, Kansas
Current Conditions -  °F | °C
As of 4:35 PM on Tuesday 21 Oct 2014 (Local Time) from KEWK Reporting Station
Few Clouds Few Clouds  
Wind Chill: 79°   Ceiling: Unl
Heat Index: 79°   Visibility: 10mi
Dew Point: 55°   Wind: 13mph
Humidity: 44%   Direction: 170°S
Pressure: 30.05"   Gusts: 17mph
Location:  38.35°N, 97.02°W
Report Text: KEWK 212135Z AUTO 17011G15KT 10SM FEW065 26/13 A3005 RMK AO1
Loading
Personal Weather Stations






























Interactive Weather Map
Tropical Storm Tracking
New forecast layout! Learn more

10-Day Weather Forecast

Advertisements
Track Severe Weather on mobile